Time;durP1;ratioP1;P1;durP2;ratioP2;P2;SDS_P1;SDS_P2;PMS_P1;PMS_P2;Temp;Humidity;BMP_temperature;BMP_pressure;BME280_temperature;BME280_humidity;BME280_pressure;Samples;Min_cycle;Max_cycle;Signal;HPM_P1;HPM_P2
2023/09/21 00:00:59;;;;;;;1.75;0.80;;;22.20;74.90;;;;;;5093573;28;20032;-76
2023/09/21 00:03:28;;;;;;;0.80;0.65;;;22.20;75.30;;;;;;5093123;28;20031;-76
2023/09/21 00:05:55;;;;;;;2.08;0.60;;;;;;;;;;5093099;28;20043;-76
2023/09/21 00:08:22;;;;;;;0.65;0.40;;;;;;;;;;5093074;28;20032;-76
2023/09/21 00:10:50;;;;;;;1.55;0.80;;;;;;;;;;5092127;28;20077;-76
2023/09/21 00:13:16;;;;;;;1.58;0.70;;;;;;;;;;5093084;28;20058;-76
2023/09/21 00:15:43;;;;;;;1.80;0.60;;;;;;;;;;5092982;28;20024;-76
2023/09/21 00:18:09;;;;;;;1.15;0.50;;;;;;;;;;5093365;28;20032;-76
2023/09/21 00:20:42;;;;;;;1.00;0.60;;;;;;;;;;5092792;28;20032;-76
2023/09/21 00:23:11;;;;;;;2.08;0.40;;;;;;;;;;5093106;28;20107;-76
2023/09/21 00:25:38;;;;;;;1.35;0.60;;;;;;;;;;5092785;28;20118;-75
2023/09/21 00:28:11;;;;;;;0.82;0.63;;;;;;;;;;5093030;28;20044;-76
2023/09/21 00:30:38;;;;;;;0.70;0.50;;;;;;;;;;5092729;28;20077;-76
2023/09/21 00:33:07;;;;;;;0.80;0.68;;;;;;;;;;5092906;28;20054;-76
2023/09/21 00:35:39;;;;;;;1.10;0.55;;;22.40;75.50;;;;;;5092706;28;20028;-76
2023/09/21 00:38:09;;;;;;;1.00;0.57;;;;;;;;;;5092590;28;20067;-76
2023/09/21 00:40:38;;;;;;;1.08;0.63;;;;;;;;;;5092559;28;20028;-76
2023/09/21 00:43:10;;;;;;;0.70;0.50;;;22.20;75.30;;;;;;5092495;28;20072;-76
2023/09/21 00:45:36;;;;;;;1.42;0.77;;;22.10;75.40;;;;;;5093119;28;20061;-76
2023/09/21 00:48:04;;;;;;;1.00;0.70;;;22.20;75.40;;;;;;5092426;28;20479;-76
2023/09/21 00:50:31;;;;;;;0.80;0.70;;;22.10;75.30;;;;;;5092236;28;20191;-76
2023/09/21 00:52:57;;;;;;;1.35;0.77;;;;;;;;;;5092394;28;20039;-76
2023/09/21 00:55:30;;;;;;;0.70;0.70;;;22.10;75.40;;;;;;5090974;28;20065;-76
2023/09/21 00:58:00;;;;;;;1.85;1.02;;;22.10;75.40;;;;;;5092298;28;20081;-76
2023/09/21 01:00:27;;;;;;;0.73;0.57;;;22.10;75.40;;;;;;5092172;28;20031;-76
2023/09/21 01:02:54;;;;;;;0.73;0.50;;;22.20;74.30;;;;;;5092325;28;20047;-76
2023/09/21 01:05:22;;;;;;;0.75;0.70;;;;;;;;;;5092441;28;20024;-76
2023/09/21 01:07:50;;;;;;;0.73;0.73;;;22.10;72.10;;;;;;5091911;28;20039;-76
2023/09/21 01:10:21;;;;;;;0.68;0.50;;;22.10;73.60;;;;;;5092237;28;20020;-76
2023/09/21 01:12:57;;;;;;;0.77;0.57;;;;;;;;;;5092366;28;20024;-76
2023/09/21 01:15:23;;;;;;;1.08;0.70;;;;;;;;;;5092017;28;20016;-76
2023/09/21 01:17:49;;;;;;;0.68;0.50;;;;;;;;;;5092009;28;20404;-76
2023/09/21 01:22:57;;;;;;;0.80;0.75;;;22.10;75.40;;;;;;5092151;28;20048;-76
2023/09/21 01:25:23;;;;;;;0.77;0.60;;;;;;;;;;5091888;28;20386;-76
2023/09/21 01:27:51;;;;;;;3.45;0.60;;;;;;;;;;5091718;28;20114;-76
2023/09/21 01:30:17;;;;;;;1.02;0.60;;;;;;;;;;5092440;28;20033;-76
2023/09/21 01:32:43;;;;;;;1.13;0.60;;;;;;;;;;5091933;28;20036;-76
2023/09/21 01:35:09;;;;;;;1.25;0.73;;;;;;;;;;5092073;28;20395;-76
2023/09/21 01:37:36;;;;;;;0.95;0.80;;;;;;;;;;5091800;28;20501;-76
2023/09/21 01:40:10;;;;;;;0.75;0.60;;;22.10;72.70;;;;;;5090474;28;20494;-76
2023/09/21 01:42:36;;;;;;;1.05;0.57;;;;;;;;;;5092279;28;20428;-76
2023/09/21 01:45:03;;;;;;;0.88;0.63;;;;;;;;;;5091666;28;20025;-76
2023/09/21 01:47:30;;;;;;;0.93;0.55;;;;;;;;;;5091669;28;20123;-76
2023/09/21 01:49:56;;;;;;;0.80;0.65;;;;;;;;;;5091591;28;20507;-76
2023/09/21 01:52:22;;;;;;;1.33;0.50;;;;;;;;;;5091667;28;20386;-76
2023/09/21 01:54:48;;;;;;;0.50;0.50;;;;;;;;;;5091673;28;20062;-76
2023/09/21 01:57:14;;;;;;;1.20;0.70;;;;;;;;;;5091620;28;20055;-76
2023/09/21 01:59:41;;;;;;;0.73;0.63;;;;;;;;;;5091813;28;20043;-76
2023/09/21 02:02:07;;;;;;;0.55;0.55;;;;;;;;;;5091743;28;20051;-76
2023/09/21 02:04:33;;;;;;;1.10;0.82;;;;;;;;;;5091421;28;20023;-76
2023/09/21 02:07:00;;;;;;;0.60;0.40;;;;;;;;;;5091687;28;20040;-76
2023/09/21 02:09:26;;;;;;;0.88;0.40;;;;;;;;;;5091782;28;20028;-75
2023/09/21 02:11:54;;;;;;;0.73;0.65;;;;;;;;;;5092342;28;20036;-76
2023/09/21 02:14:20;;;;;;;0.45;0.43;;;;;;;;;;5091721;28;20032;-76
2023/09/21 02:16:48;;;;;;;1.40;0.60;;;;;;;;;;5091362;28;20052;-76
2023/09/21 02:19:15;;;;;;;0.73;0.68;;;;;;;;;;5091533;28;20031;-76
2023/09/21 02:21:41;;;;;;;1.10;0.45;;;;;;;;;;5091346;28;20024;-76
2023/09/21 02:24:08;;;;;;;1.08;0.50;;;;;;;;;;5091621;28;20032;-76
2023/09/21 02:26:37;;;;;;;0.57;0.40;;;;;;;;;;5091048;28;20058;-76
2023/09/21 02:29:06;;;;;;;1.00;0.55;;;;;;;;;;5091657;28;20020;-76
2023/09/21 02:31:37;;;;;;;1.50;0.60;;;;;;;;;;5091437;28;20032;-76
2023/09/21 02:34:04;;;;;;;1.05;0.68;;;;;;;;;;5092638;28;20039;-75
2023/09/21 02:36:31;;;;;;;1.15;0.75;;;;;;;;;;5094886;28;20035;-76
2023/09/21 02:38:57;;;;;;;1.02;0.65;;;;;;;;;;5095579;28;20028;-76
2023/09/21 02:41:23;;;;;;;1.67;0.60;;;;;;;;;;5094769;28;20364;-76
2023/09/21 02:43:50;;;;;;;0.80;0.60;;;;;;;;;;5095079;28;20024;-75
2023/09/21 02:46:16;;;;;;;0.73;0.50;;;;;;;;;;5094864;28;20024;-75
2023/09/21 02:48:42;;;;;;;0.70;0.50;;;;;;;;;;5094966;28;20028;-77
2023/09/21 02:51:09;;;;;;;1.02;0.52;;;;;;;;;;5094696;28;20489;-76
2023/09/21 02:53:36;;;;;;;1.35;0.70;;;;;;;;;;5094983;28;20421;-75
2023/09/21 02:56:05;;;;;;;0.90;0.60;;;22.00;75.50;;;;;;5094589;28;20028;-75
2023/09/21 02:58:31;;;;;;;1.38;0.57;;;;;;;;;;5094593;28;20092;-76
2023/09/21 03:00:59;;;;;;;0.88;0.60;;;;;;;;;;5094367;28;20063;-75
2023/09/21 03:03:27;;;;;;;0.60;0.60;;;;;;;;;;5094303;28;20032;-75
2023/09/21 03:05:55;;;;;;;0.90;0.40;;;;;;;;;;5094237;28;20478;-76
2023/09/21 03:08:22;;;;;;;0.73;0.73;;;;;;;;;;5094811;28;20166;-70
2023/09/21 03:11:10;;;;;;;0.75;0.75;;;;;;;;;;5094149;28;20394;-69
2023/09/21 03:13:53;;;;;;;0.73;0.50;;;;;;;;;;5094006;28;20035;-69
2023/09/21 03:16:42;;;;;;;1.38;0.47;;;22.00;75.70;;;;;;5094030;28;20169;-70
2023/09/21 03:19:09;;;;;;;0.88;0.70;;;;;;;;;;5094529;28;20020;-69
2023/09/21 03:21:54;;;;;;;1.25;0.65;;;;;;;;;;5094341;28;20531;-69
2023/09/21 03:24:20;;;;;;;0.98;0.70;;;;;;;;;;5094344;28;20368;-69
2023/09/21 03:26:47;;;;;;;0.90;0.52;;;;;;;;;;5093591;28;20474;-69
2023/09/21 03:29:13;;;;;;;0.70;0.70;;;;;;;;;;5094222;28;20028;-69
2023/09/21 03:31:39;;;;;;;1.15;0.60;;;;;;;;;;5094112;28;20052;-69
2023/09/21 03:34:06;;;;;;;0.50;0.50;;;;;;;;;;5093752;28;20101;-69
2023/09/21 03:36:37;;;;;;;0.60;0.60;;;;;;;;;;5094174;28;20505;-69
2023/09/21 03:39:09;;;;;;;0.70;0.55;;;;;;;;;;5093947;28;20441;-69
2023/09/21 03:41:36;;;;;;;0.90;0.70;;;;;;;;;;5093535;28;20486;-69
2023/09/21 03:44:05;;;;;;;0.40;0.40;;;;;;;;;;5093469;28;20039;-69
2023/09/21 03:46:31;;;;;;;1.00;0.70;;;;;;;;;;5093716;28;20028;-69
2023/09/21 03:48:58;;;;;;;0.70;0.60;;;;;;;;;;5093725;28;20028;-69
2023/09/21 03:51:25;;;;;;;0.82;0.60;;;;;;;;;;5093332;28;20427;-69
2023/09/21 03:53:52;;;;;;;0.82;0.60;;;;;;;;;;5093356;28;20115;-69
2023/09/21 03:56:19;;;;;;;0.90;0.50;;;;;;;;;;5093332;28;20488;-69
2023/09/21 03:58:45;;;;;;;0.80;0.52;;;;;;;;;;5093540;28;20538;-69
2023/09/21 04:01:13;;;;;;;0.40;0.40;;;;;;;;;;5093285;28;20051;-69
2023/09/21 04:03:40;;;;;;;0.43;0.38;;;;;;;;;;5093425;28;20034;-69
2023/09/21 04:06:09;;;;;;;0.77;0.57;;;;;;;;;;5093741;28;20081;-69
2023/09/21 04:08:35;;;;;;;0.60;0.60;;;;;;;;;;5093414;28;20443;-69
2023/09/21 04:11:01;;;;;;;0.40;0.40;;;;;;;;;;5093084;28;20048;-69
2023/09/21 04:13:28;;;;;;;0.70;0.63;;;;;;;;;;5092983;28;20032;-69
2023/09/21 04:15:54;;;;;;;0.60;0.40;;;;;;;;;;5093308;28;20020;-69
2023/09/21 04:18:21;;;;;;;0.93;0.40;;;;;;;;;;5092983;28;20545;-69
2023/09/21 04:20:47;;;;;;;0.70;0.43;;;;;;;;;;5092874;28;20107;-69
2023/09/21 04:23:13;;;;;;;0.73;0.60;;;;;;;;;;5093028;28;20031;-69
2023/09/21 04:25:39;;;;;;;1.02;0.60;;;;;;;;;;5092808;28;20024;-70
2023/09/21 04:28:06;;;;;;;1.33;0.63;;;;;;;;;;5092831;28;20032;-70
2023/09/21 04:30:34;;;;;;;1.48;0.47;;;;;;;;;;5092864;28;20421;-70
2023/09/21 04:33:01;;;;;;;1.20;0.70;;;;;;;;;;5093351;28;20085;-70
2023/09/21 04:35:27;;;;;;;0.50;0.50;;;;;;;;;;5092752;28;20056;-70
2023/09/21 04:37:58;;;;;;;0.90;0.60;;;;;;;;;;5092447;28;20478;-70
2023/09/21 04:40:26;;;;;;;0.88;0.60;;;;;;;;;;5092430;28;20127;-70
2023/09/21 04:42:52;;;;;;;0.90;0.90;;;;;;;;;;5092750;28;20447;-70
2023/09/21 04:45:19;;;;;;;0.60;0.30;;;;;;;;;;5092672;28;20028;-70
2023/09/21 04:47:47;;;;;;;0.82;0.60;;;21.90;76.00;;;;;;5092285;28;20075;-70
2023/09/21 04:50:14;;;;;;;1.00;0.70;;;22.00;76.00;;;;;;5092266;28;20483;-70
2023/09/21 04:52:43;;;;;;;1.05;0.70;;;;;;;;;;5092192;28;20481;-70
2023/09/21 04:55:10;;;;;;;0.98;0.70;;;21.90;72.50;;;;;;5092167;28;20438;-70
2023/09/21 04:57:37;;;;;;;0.77;0.65;;;;;;;;;;5092053;28;20440;-69
2023/09/21 05:00:10;;;;;;;1.55;0.60;;;21.80;76.00;;;;;;5092190;28;20111;-69
2023/09/21 05:02:36;;;;;;;1.20;0.90;;;;;;;;;;5092898;28;20028;-69
2023/09/21 05:05:03;;;;;;;0.95;0.80;;;;;;;;;;5092062;28;20466;-69
2023/09/21 05:07:29;;;;;;;1.70;0.77;;;;;;;;;;5092293;28;20126;-69
2023/09/21 05:09:56;;;;;;;0.93;0.60;;;;;;;;;;5092317;28;20051;-69
2023/09/21 05:12:22;;;;;;;1.55;0.93;;;;;;;;;;5091959;28;20466;-69
2023/09/21 05:14:48;;;;;;;0.60;0.60;;;;;;;;;;5092081;28;20032;-69
2023/09/21 05:17:15;;;;;;;0.60;0.60;;;;;;;;;;5092224;28;20032;-69
2023/09/21 05:19:42;;;;;;;0.95;0.70;;;;;;;;;;5092148;28;20032;-69
2023/09/21 05:22:09;;;;;;;1.33;0.65;;;21.90;73.00;;;;;;5091771;28;20103;-69
2023/09/21 05:24:36;;;;;;;0.90;0.68;;;;;;;;;;5091659;28;20044;-73
2023/09/21 05:27:03;;;;;;;1.58;1.05;;;21.90;74.40;;;;;;5091440;28;20063;-70
2023/09/21 05:29:30;;;;;;;1.38;0.95;;;;;;;;;;5092346;28;20071;-71
2023/09/21 05:31:57;;;;;;;1.45;0.70;;;;;;;;;;5091554;28;20415;-69
2023/09/21 05:34:26;;;;;;;1.10;0.80;;;;;;;;;;5091628;28;20390;-69
2023/09/21 05:36:54;;;;;;;1.70;0.95;;;;;;;;;;5091959;28;20060;-70
2023/09/21 05:39:20;;;;;;;1.02;0.75;;;;;;;;;;5091395;28;20028;-69
2023/09/21 05:41:47;;;;;;;1.35;0.98;;;;;;;;;;5091819;28;20081;-70
2023/09/21 05:44:13;;;;;;;0.95;0.85;;;;;;;;;;5091379;28;20039;-69
2023/09/21 05:46:40;;;;;;;0.95;0.60;;;;;;;;;;5091379;28;20032;-69
2023/09/21 05:49:07;;;;;;;1.02;0.85;;;;;;;;;;5091480;28;20032;-68
2023/09/21 05:51:35;;;;;;;1.00;0.90;;;;;;;;;;5091322;28;20024;-68
2023/09/21 05:54:02;;;;;;;1.27;1.02;;;;;;;;;;5091267;28;20020;-68
2023/09/21 05:56:28;;;;;;;2.40;0.90;;;;;;;;;;5091491;28;20024;-69
2023/09/21 05:58:55;;;;;;;1.92;0.85;;;;;;;;;;5092129;28;20181;-68
2023/09/21 06:01:22;;;;;;;1.42;0.85;;;;;;;;;;5090172;28;20035;-69
2023/09/21 06:03:49;;;;;;;0.70;0.70;;;;;;;;;;5091852;28;20028;-69
2023/09/21 06:06:15;;;;;;;0.98;0.88;;;;;;;;;;5091822;28;20024;-68
2023/09/21 06:08:43;;;;;;;1.50;0.82;;;;;;;;;;5091890;28;20063;-70
2023/09/21 06:11:10;;;;;;;1.05;0.80;;;;;;;;;;5095591;28;20473;-70
2023/09/21 06:13:36;;;;;;;0.85;0.80;;;;;;;;;;5095144;28;20474;-70
2023/09/21 06:16:02;;;;;;;1.17;0.90;;;;;;;;;;5097143;28;20020;-69
2023/09/21 06:18:29;;;;;;;1.08;0.68;;;;;;;;;;5097205;28;20069;-72
2023/09/21 06:20:55;;;;;;;1.10;0.70;;;;;;;;;;5094963;28;20032;-70
2023/09/21 06:23:21;;;;;;;1.48;0.70;;;;;;;;;;5094975;28;20024;-71
2023/09/21 06:25:48;;;;;;;0.80;0.70;;;;;;;;;;5094637;28;20111;-71
2023/09/21 06:28:15;;;;;;;1.55;1.00;;;;;;;;;;5095609;28;20032;-71
2023/09/21 06:30:41;;;;;;;0.77;0.77;;;;;;;;;;5094842;28;20028;-72
2023/09/21 06:33:07;;;;;;;1.17;0.77;;;;;;;;;;5094894;28;20035;-69
2023/09/21 06:35:34;;;;;;;1.67;0.95;;;;;;;;;;5094821;28;20028;-70
2023/09/21 06:38:01;;;;;;;1.00;0.70;;;;;;;;;;5095156;28;20394;-71
2023/09/21 06:40:28;;;;;;;0.73;0.70;;;;;;;;;;5095138;28;20436;-75
2023/09/21 06:42:54;;;;;;;0.98;0.50;;;;;;;;;;5094734;28;20154;-71
2023/09/21 06:45:20;;;;;;;3.60;0.95;;;;;;;;;;5094661;28;20066;-71
2023/09/21 06:47:47;;;;;;;1.15;0.90;;;;;;;;;;5094531;28;20181;-72
2023/09/21 06:50:14;;;;;;;1.08;0.75;;;;;;;;;;5094574;28;20027;-71
2023/09/21 06:52:40;;;;;;;0.57;0.52;;;;;;;;;;5094488;28;20042;-71
2023/09/21 06:55:06;;;;;;;0.70;0.70;;;;;;;;;;5095016;28;20024;-71
2023/09/21 06:57:34;;;;;;;1.23;0.88;;;;;;;;;;5094778;28;20036;-71
2023/09/21 07:00:01;;;;;;;0.93;0.57;;;21.60;73.60;;;;;;5094248;28;20024;-71
2023/09/21 07:02:28;;;;;;;0.73;0.50;;;;;;;;;;5094262;28;20073;-71
2023/09/21 07:04:54;;;;;;;0.90;0.60;;;;;;;;;;5094261;28;20034;-72
2023/09/21 07:07:21;;;;;;;0.50;0.50;;;;;;;;;;5094545;28;20036;-71
2023/09/21 07:09:47;;;;;;;1.38;0.57;;;;;;;;;;5094257;28;20048;-71
2023/09/21 07:12:14;;;;;;;1.27;0.70;;;;;;;;;;5094231;28;20032;-71
2023/09/21 07:14:41;;;;;;;2.67;0.65;;;;;;;;;;5094034;28;20474;-71
2023/09/21 07:17:07;;;;;;;1.25;0.80;;;;;;;;;;5094137;28;20032;-71
2023/09/21 07:19:34;;;;;;;0.80;0.45;;;;;;;;;;5093723;28;20027;-70
2023/09/21 07:22:01;;;;;;;1.38;0.65;;;;;;;;;;5093889;28;20024;-69
2023/09/21 07:24:29;;;;;;;1.00;0.60;;;;;;;;;;5093370;28;20470;-69
2023/09/21 07:26:56;;;;;;;0.98;0.70;;;;;;;;;;5093750;28;20130;-69
2023/09/21 07:29:23;;;;;;;0.73;0.60;;;;;;;;;;5094000;28;20035;-69
2023/09/21 07:31:49;;;;;;;2.25;1.08;;;;;;;;;;5093883;28;20051;-69
2023/09/21 07:34:16;;;;;;;1.10;0.80;;;;;;;;;;5093799;28;20036;-69
2023/09/21 07:36:46;;;;;;;0.85;0.63;;;;;;;;;;5093901;28;20115;-71
2023/09/21 07:39:12;;;;;;;1.00;0.55;;;;;;;;;;5093609;28;20028;-70
2023/09/21 07:41:40;;;;;;;1.65;0.90;;;;;;;;;;5093835;28;20036;-69
2023/09/21 07:44:10;;;;;;;0.65;0.60;;;21.60;74.40;;;;;;5093890;28;20024;-68
2023/09/21 07:46:37;;;;;;;1.63;0.50;;;21.50;72.10;;;;;;5093818;28;20462;-68
2023/09/21 07:49:07;;;;;;;0.50;0.50;;;;;;;;;;5093742;28;20051;-69
2023/09/21 07:51:34;;;;;;;0.95;0.63;;;21.50;75.40;;;;;;5093713;28;20182;-68
2023/09/21 07:54:00;;;;;;;0.73;0.45;;;;;;;;;;5094150;28;20127;-68
2023/09/21 07:56:27;;;;;;;2.55;0.75;;;21.50;75.40;;;;;;5093322;28;20111;-68
2023/09/21 07:58:53;;;;;;;0.65;0.60;;;;;;;;;;5093225;28;20035;-68
2023/09/21 08:01:19;;;;;;;0.40;0.40;;;;;;;;;;5093189;28;20028;-68
2023/09/21 08:03:46;;;;;;;1.15;0.70;;;;;;;;;;5093254;28;20071;-69
2023/09/21 08:06:12;;;;;;;1.20;0.45;;;;;;;;;;5093067;28;20024;-68
2023/09/21 08:08:39;;;;;;;2.38;0.40;;;;;;;;;;5093334;28;20059;-69
2023/09/21 08:11:06;;;;;;;3.00;0.60;;;;;;;;;;5093186;28;20091;-68
2023/09/21 08:13:33;;;;;;;1.35;0.55;;;;;;;;;;5092927;28;20063;-68
2023/09/21 08:16:01;;;;;;;0.77;0.50;;;;;;;;;;5092908;28;20035;-68
2023/09/21 08:18:27;;;;;;;1.27;0.60;;;;;;;;;;5093118;28;20024;-68
2023/09/21 08:20:54;;;;;;;1.02;0.55;;;;;;;;;;5093674;28;20043;-68
2023/09/21 08:23:20;;;;;;;1.00;0.57;;;;;;;;;;5093190;28;20024;-68
2023/09/21 08:25:47;;;;;;;0.60;0.60;;;;;;;;;;5092917;28;20076;-68
2023/09/21 08:28:13;;;;;;;0.75;0.50;;;;;;;;;;5092734;28;20478;-68
2023/09/21 08:30:39;;;;;;;1.92;0.57;;;;;;;;;;5093155;28;20028;-69
2023/09/21 08:33:10;;;;;;;0.55;0.40;;;;;;;;;;5092131;28;20116;-69
2023/09/21 08:35:35;;;;;;;;;;;21.40;69.80;;;;;;5093306;28;20035;-68
2023/09/21 08:38:03;;;;;;;1.77;0.50;;;;;;;;;;5092748;28;19991;-69
2023/09/21 08:40:32;;;;;;;1.20;0.57;;;21.50;75.60;;;;;;5092708;28;20123;-69
2023/09/21 08:42:59;;;;;;;0.65;0.50;;;;;;;;;;5092830;28;20016;-68
2023/09/21 08:45:25;;;;;;;1.35;0.70;;;;;;;;;;5092588;28;20028;-69
2023/09/21 08:47:51;;;;;;;1.48;0.52;;;;;;;;;;5092499;28;20040;-69
2023/09/21 08:50:17;;;;;;;0.32;0.30;;;;;;;;;;5093175;28;20428;-69
2023/09/21 08:52:48;;;;;;;1.02;0.50;;;;;;;;;;5092660;28;20064;-69
2023/09/21 08:55:16;;;;;;;1.00;0.40;;;;;;;;;;5092566;28;20020;-68
2023/09/21 08:57:43;;;;;;;2.63;0.50;;;;;;;;;;5092863;28;20031;-68
2023/09/21 09:00:09;;;;;;;1.65;0.70;;;;;;;;;;5095460;28;20069;-77
2023/09/21 09:02:37;;;;;;;1.20;0.60;;;;;;;;;;5094323;28;20032;-81
2023/09/21 09:05:07;;;;;;;0.43;0.30;;;21.40;69.90;;;;;;5092848;28;20095;-77
2023/09/21 09:07:40;;;;;;;0.60;0.50;;;21.40;70.10;;;;;;5092612;28;20055;-77
2023/09/21 09:10:25;;;;;;;1.30;0.50;;;21.60;73.60;;;;;;5092180;28;20047;-77
2023/09/21 09:13:05;;;;;;;1.10;0.68;;;21.40;75.80;;;;;;5090963;28;20025;-76
2023/09/21 09:15:37;;;;;;;1.20;0.68;;;21.30;70.10;;;;;;5074506;28;20086;-77
2023/09/21 09:18:03;;;;;;;1.10;0.50;;;;;;;;;;5092942;28;20028;-77
2023/09/21 09:20:30;;;;;;;0.52;0.47;;;21.40;73.20;;;;;;5092114;28;20462;-77
2023/09/21 09:22:56;;;;;;;0.65;0.65;;;21.40;72.70;;;;;;5092192;28;20385;-79
2023/09/21 09:25:23;;;;;;;0.80;0.60;;;;;;;;;;5092197;28;20020;-81
2023/09/21 09:27:49;;;;;;;0.45;0.30;;;;;;;;;;5092007;28;20052;-81
2023/09/21 09:30:16;;;;;;;1.55;0.50;;;;;;;;;;5092244;28;20382;-82
2023/09/21 09:32:44;;;;;;;1.15;0.57;;;;;;;;;;5092201;28;20032;-86
2023/09/21 09:35:14;;;;;;;0.60;0.52;;;21.40;75.90;;;;;;5092210;28;20473;-77
2023/09/21 09:37:40;;;;;;;3.25;0.60;;;;;;;;;;5091865;28;20076;-78
2023/09/21 09:40:12;;;;;;;0.82;0.55;;;;;;;;;;5091833;28;20029;-79
2023/09/21 09:42:40;;;;;;;1.98;0.50;;;21.40;75.90;;;;;;5092723;28;20028;-78
2023/09/21 09:45:16;;;;;;;3.88;0.52;;;21.40;75.80;;;;;;5096055;28;20089;-78
2023/09/21 09:47:47;;;;;;;1.75;0.73;;;21.90;76.00;;;;;;5096591;28;20046;-78
2023/09/21 09:50:17;;;;;;;2.15;0.57;;;21.40;76.20;;;;;;5095960;28;20016;-79
2023/09/21 09:52:49;;;;;;;0.77;0.43;;;21.50;75.90;;;;;;5096325;28;20393;-80
2023/09/21 09:55:18;;;;;;;0.95;0.50;;;21.40;73.60;;;;;;5095966;28;20028;-76
2023/09/21 09:57:45;;;;;;;1.00;0.63;;;21.40;74.80;;;;;;5096126;28;20035;-77
2023/09/21 10:00:15;;;;;;;2.25;0.65;;;21.50;75.80;;;;;;5096044;28;20099;-76
2023/09/21 10:02:42;;;;;;;2.53;0.85;;;;;;;;;;5095660;28;20043;-76
2023/09/21 10:05:08;;;;;;;1.15;0.40;;;;;;;;;;5095671;28;20020;-76
2023/09/21 10:07:34;;;;;;;1.05;0.63;;;;;;;;;;5095539;28;20169;-74
2023/09/21 10:10:03;;;;;;;1.45;0.80;;;21.40;72.50;;;;;;5095648;28;20028;-77
2023/09/21 10:12:32;;;;;;;2.20;0.28;;;21.40;75.90;;;;;;5095563;28;20031;-82
2023/09/21 10:14:58;;;;;;;1.20;0.40;;;;;;;;;;5096095;28;20101;-82
2023/09/21 10:17:27;;;;;;;1.92;0.50;;;21.40;72.60;;;;;;5095648;28;20032;-79
2023/09/21 10:20:11;;;;;;;1.33;0.40;;;21.40;75.90;;;;;;5095625;28;20081;-79
2023/09/21 10:22:37;;;;;;;1.40;0.52;;;;;;;;;;5095432;28;20119;-79
2023/09/21 10:25:03;;;;;;;1.17;0.50;;;;;;;;;;5095337;28;20024;-79
2023/09/21 10:27:33;;;;;;;0.55;0.50;;;21.40;75.90;;;;;;5095357;28;20056;-79
2023/09/21 10:30:09;;;;;;;1.55;0.68;;;21.40;75.80;;;;;;5095212;28;20093;-79
2023/09/21 10:32:51;;;;;;;1.60;0.45;;;21.40;70.20;;;;;;5095154;28;20032;-79
2023/09/21 10:35:42;;;;;;;1.60;0.32;;;21.30;70.20;;;;;;5095264;28;20031;-75
2023/09/21 10:38:13;;;;;;;0.82;0.40;;;21.40;70.30;;;;;;5090180;28;20494;-81
2023/09/21 10:40:40;;;;;;;0.85;0.65;;;;;;;;;;5098825;28;20475;-77
2023/09/21 10:43:37;;;;;;;3.83;0.55;;;21.40;70.30;;;;;;5095412;28;20077;-78
2023/09/21 10:46:03;;;;;;;1.00;0.60;;;;;;;;;;5094937;28;20028;-79
2023/09/21 10:48:31;;;;;;;0.40;0.30;;;;;;;;;;5095138;28;20064;-78
2023/09/21 10:50:57;;;;;;;0.85;0.40;;;21.40;72.90;;;;;;5093523;28;20465;-80
2023/09/21 10:53:24;;;;;;;1.13;0.75;;;;;;;;;;5094803;28;20016;-80
2023/09/21 10:55:52;;;;;;;0.68;0.28;;;;;;;;;;5094150;28;20142;-78
2023/09/21 10:58:18;;;;;;;1.25;0.40;;;;;;;;;;5094971;28;20039;-77
2023/09/21 11:00:45;;;;;;;2.15;0.50;;;;;;;;;;5094802;28;20488;-78
2023/09/21 11:03:12;;;;;;;0.75;0.45;;;;;;;;;;5094740;28;20058;-80
2023/09/21 11:05:38;;;;;;;0.60;0.40;;;;;;;;;;5094815;28;20020;-78
2023/09/21 11:08:04;;;;;;;2.35;0.68;;;;;;;;;;5094447;28;20051;-78
2023/09/21 11:10:31;;;;;;;1.48;0.73;;;;;;;;;;5094543;28;20028;-77
2023/09/21 11:12:57;;;;;;;0.52;0.40;;;;;;;;;;5094889;28;20034;-78
2023/09/21 11:15:25;;;;;;;0.95;0.45;;;;;;;;;;5094685;28;20030;-79
2023/09/21 11:17:52;;;;;;;1.48;0.68;;;21.30;74.80;;;;;;5094333;28;20522;-78
2023/09/21 11:20:18;;;;;;;0.63;0.50;;;;;;;;;;5094254;28;20024;-78
2023/09/21 11:22:47;;;;;;;2.47;0.50;;;21.30;75.90;;;;;;5094430;28;20032;-78
2023/09/21 11:25:18;;;;;;;0.70;0.60;;;21.30;72.60;;;;;;5094578;28;20016;-78
2023/09/21 11:27:45;;;;;;;0.70;0.43;;;;;;;;;;5093985;28;20052;-78
2023/09/21 11:30:13;;;;;;;1.25;0.60;;;21.40;73.70;;;;;;5094395;28;20028;-78
2023/09/21 11:32:57;;;;;;;1.45;0.63;;;21.40;70.20;;;;;;5094152;28;20390;-78
2023/09/21 11:35:23;;;;;;;1.83;0.70;;;;;;;;;;5094059;28;20027;-77
2023/09/21 11:37:50;;;;;;;1.20;0.50;;;21.40;75.80;;;;;;5093957;28;20032;-81
2023/09/21 11:40:21;;;;;;;1.15;0.50;;;;;;;;;;5094821;28;20044;-80
2023/09/21 11:42:48;;;;;;;0.60;0.40;;;21.10;75.90;;;;;;5094054;28;20065;-80
2023/09/21 11:45:19;;;;;;;0.98;0.50;;;21.30;70.40;;;;;;5094039;28;20039;-80
2023/09/21 11:47:47;;;;;;;0.88;0.30;;;21.40;76.00;;;;;;5094110;28;20378;-80
2023/09/21 11:50:18;;;;;;;1.23;0.50;;;21.40;76.00;;;;;;5093765;28;20514;-71
2023/09/21 11:52:44;;;;;;;1.02;0.32;;;;;;;;;;5093743;28;20209;-71
2023/09/21 11:55:11;;;;;;;0.35;0.30;;;;;;;;;;5093872;28;20089;-71
2023/09/21 11:57:38;;;;;;;1.23;0.50;;;;;;;;;;5093537;28;20028;-71
2023/09/21 12:00:26;;;;;;;0.95;0.50;;;;;;;;;;5093764;28;20180;-71
2023/09/21 12:02:50;;;;;;;0.60;0.50;;;;;;;;;;5093297;28;20028;-71
2023/09/21 12:05:18;;;;;;;1.13;0.55;;;;;;;;;;5093683;28;20031;-70
2023/09/21 12:07:45;;;;;;;0.77;0.50;;;;;;;;;;5092465;28;20415;-70
2023/09/21 12:10:11;;;;;;;2.15;0.60;;;;;;;;;;5094105;28;20844;-70
2023/09/21 12:12:38;;;;;;;0.57;0.57;;;;;;;;;;5093429;28;20028;-70
2023/09/21 12:15:05;;;;;;;0.57;0.30;;;;;;;;;;5093346;28;20221;-70
2023/09/21 12:17:32;;;;;;;0.60;0.30;;;;;;;;;;5093010;28;20028;-70
2023/09/21 12:20:00;;;;;;;2.65;0.45;;;;;;;;;;5093090;28;20116;-70
2023/09/21 12:22:27;;;;;;;2.88;0.47;;;;;;;;;;5093338;28;20389;-70
2023/09/21 12:24:54;;;;;;;1.63;0.50;;;;;;;;;;5093271;28;20374;-70
2023/09/21 12:27:21;;;;;;;1.42;0.45;;;;;;;;;;5092702;28;20059;-70
2023/09/21 12:29:47;;;;;;;0.50;0.40;;;;;;;;;;5093244;28;20382;-70
2023/09/21 12:32:14;;;;;;;1.40;0.50;;;;;;;;;;5092705;28;20081;-70
2023/09/21 12:34:42;;;;;;;1.38;0.70;;;;;;;;;;5092805;28;20513;-70
2023/09/21 12:37:08;;;;;;;0.73;0.30;;;;;;;;;;5092757;28;20028;-70
2023/09/21 12:39:34;;;;;;;0.63;0.50;;;;;;;;;;5092964;28;20028;-71
2023/09/21 12:42:01;;;;;;;1.45;0.50;;;;;;;;;;5092545;28;20039;-70
2023/09/21 12:44:27;;;;;;;0.52;0.30;;;;;;;;;;5092980;28;20031;-71
2023/09/21 12:46:54;;;;;;;0.55;0.40;;;;;;;;;;5092558;28;20043;-70
2023/09/21 12:49:21;;;;;;;0.90;0.45;;;;;;;;;;5092930;28;20085;-72
2023/09/21 12:51:47;;;;;;;0.35;0.20;;;;;;;;;;5092621;28;20028;-71
2023/09/21 12:54:14;;;;;;;0.88;0.40;;;;;;;;;;5092835;28;20054;-72
2023/09/21 12:56:41;;;;;;;1.92;0.50;;;;;;;;;;5092491;28;20032;-71
2023/09/21 12:59:08;;;;;;;0.30;0.28;;;;;;;;;;5092718;28;20262;-71
2023/09/21 13:01:35;;;;;;;1.85;0.40;;;;;;;;;;5092554;28;20024;-70
2023/09/21 13:04:03;;;;;;;0.40;0.30;;;;;;;;;;5092611;28;20104;-71
2023/09/21 13:06:29;;;;;;;0.60;0.40;;;;;;;;;;5092382;28;20441;-71
2023/09/21 13:08:55;;;;;;;1.85;0.30;;;;;;;;;;5092176;28;20032;-71
2023/09/21 13:11:22;;;;;;;0.30;0.30;;;;;;;;;;5092124;28;20032;-70
2023/09/21 13:13:48;;;;;;;0.70;0.30;;;;;;;;;;5092449;28;20134;-70
2023/09/21 13:16:15;;;;;;;2.55;0.38;;;;;;;;;;5092443;28;20038;-71
2023/09/21 13:18:42;;;;;;;0.57;0.30;;;;;;;;;;5092128;28;20048;-71
2023/09/21 13:21:10;;;;;;;0.25;0.20;;;;;;;;;;5092021;28;20036;-72
2023/09/21 13:23:37;;;;;;;0.68;0.40;;;21.40;77.00;;;;;;5092310;28;20028;-72
2023/09/21 13:26:05;;;;;;;0.45;0.28;;;21.30;77.00;;;;;;5091847;28;20535;-72
2023/09/21 13:28:32;;;;;;;1.10;0.60;;;;;;;;;;5092170;28;20048;-72
2023/09/21 13:30:59;;;;;;;0.28;0.28;;;;;;;;;;5091862;28;20486;-71
2023/09/21 13:33:25;;;;;;;0.85;0.40;;;;;;;;;;5092314;28;20040;-72
2023/09/21 13:35:52;;;;;;;0.70;0.40;;;;;;;;;;5091678;28;20395;-71
2023/09/21 13:38:18;;;;;;;0.43;0.20;;;;;;;;;;5090420;28;20032;-71
2023/09/21 13:40:46;;;;;;;0.90;0.30;;;;;;;;;;5091728;28;20020;-71
2023/09/21 13:43:14;;;;;;;0.60;0.38;;;;;;;;;;5091832;28;20024;-71
2023/09/21 13:45:41;;;;;;;0.55;0.20;;;;;;;;;;5091660;28;20035;-71
2023/09/21 13:48:08;;;;;;;0.30;0.25;;;;;;;;;;5091918;28;20048;-71
2023/09/21 13:50:36;;;;;;;0.30;0.30;;;;;;;;;;5091468;28;20446;-70
2023/09/21 13:53:02;;;;;;;0.60;0.30;;;;;;;;;;5091392;28;20028;-70
2023/09/21 13:55:28;;;;;;;1.30;0.47;;;;;;;;;;5091821;28;20020;-70
2023/09/21 13:57:55;;;;;;;0.93;0.22;;;;;;;;;;5091752;28;20139;-70
2023/09/21 14:00:21;;;;;;;0.30;0.25;;;;;;;;;;5091653;28;20030;-71
2023/09/21 14:02:48;;;;;;;0.50;0.30;;;;;;;;;;5092070;28;20055;-71
2023/09/21 14:05:18;;;;;;;0.43;0.38;;;21.30;77.20;;;;;;5091762;28;20055;-71
2023/09/21 14:07:45;;;;;;;0.30;0.30;;;;;;;;;;5091446;28;20043;-71
2023/09/21 14:10:12;;;;;;;0.98;0.38;;;;;;;;;;5091384;28;20439;-71
2023/09/21 14:12:39;;;;;;;0.50;0.30;;;;;;;;;;5091629;28;20416;-71
2023/09/21 14:15:05;;;;;;;2.33;0.45;;;;;;;;;;5091632;28;20089;-71
2023/09/21 14:17:32;;;;;;;1.08;0.30;;;;;;;;;;5091289;28;20028;-70
2023/09/21 14:19:58;;;;;;;0.98;0.30;;;;;;;;;;5091508;28;20028;-70
2023/09/21 14:22:25;;;;;;;0.73;0.43;;;;;;;;;;5091416;28;20032;-71